sensor_id;sensor_type;location;lat;lon;timestamp;pressure;altitude;pressure_sealevel;temperature
71081;BMP180;58740;50.672;18.690;2023-07-02T00:00:21;97955.00;;;17.80
71081;BMP180;58740;50.672;18.690;2023-07-02T00:03:10;97958.40;;;17.80
71081;BMP180;58740;50.672;18.690;2023-07-02T00:05:38;97959.00;;;17.80
71081;BMP180;58740;50.672;18.690;2023-07-02T00:08:05;97960.20;;;17.80
71081;BMP180;58740;50.672;18.690;2023-07-02T00:10:33;97959.40;;;17.72
71081;BMP180;58740;50.672;18.690;2023-07-02T00:13:01;97962.00;;;17.70
71081;BMP180;58740;50.672;18.690;2023-07-02T00:15:29;97962.40;;;17.70
71081;BMP180;58740;50.672;18.690;2023-07-02T00:17:57;97966.40;;;17.70
71081;BMP180;58740;50.672;18.690;2023-07-02T00:20:25;97967.60;;;17.70
71081;BMP180;58740;50.672;18.690;2023-07-02T00:22:52;97971.20;;;17.70
71081;BMP180;58740;50.672;18.690;2023-07-02T00:25:22;97974.60;;;17.70
71081;BMP180;58740;50.672;18.690;2023-07-02T00:27:50;97968.40;;;17.70
71081;BMP180;58740;50.672;18.690;2023-07-02T00:30:17;97969.20;;;17.70
71081;BMP180;58740;50.672;18.690;2023-07-02T00:32:45;97967.80;;;17.70
71081;BMP180;58740;50.672;18.690;2023-07-02T00:35:13;97961.60;;;17.70
71081;BMP180;58740;50.672;18.690;2023-07-02T00:37:41;97959.60;;;17.70
71081;BMP180;58740;50.672;18.690;2023-07-02T00:40:09;97965.40;;;17.62
71081;BMP180;58740;50.672;18.690;2023-07-02T00:42:37;97961.60;;;17.60
71081;BMP180;58740;50.672;18.690;2023-07-02T00:45:06;97957.80;;;17.60
71081;BMP180;58740;50.672;18.690;2023-07-02T00:47:35;97956.20;;;17.60
71081;BMP180;58740;50.672;18.690;2023-07-02T00:50:05;97953.60;;;17.50
71081;BMP180;58740;50.672;18.690;2023-07-02T00:52:33;97956.60;;;17.50
71081;BMP180;58740;50.672;18.690;2023-07-02T00:55:02;97955.20;;;17.50
71081;BMP180;58740;50.672;18.690;2023-07-02T00:57:30;97959.20;;;17.50
71081;BMP180;58740;50.672;18.690;2023-07-02T00:59:58;97952.00;;;17.50
71081;BMP180;58740;50.672;18.690;2023-07-02T01:02:30;97953.60;;;17.50
71081;BMP180;58740;50.672;18.690;2023-07-02T01:04:58;97956.00;;;17.50
71081;BMP180;58740;50.672;18.690;2023-07-02T01:07:28;97958.40;;;17.50
71081;BMP180;58740;50.672;18.690;2023-07-02T01:09:56;97952.00;;;17.52
71081;BMP180;58740;50.672;18.690;2023-07-02T01:12:25;97953.00;;;17.52
71081;BMP180;58740;50.672;18.690;2023-07-02T01:14:58;97949.00;;;17.60
71081;BMP180;58740;50.672;18.690;2023-07-02T01:17:30;97952.60;;;17.60
71081;BMP180;58740;50.672;18.690;2023-07-02T01:20:08;97952.20;;;17.70
71081;BMP180;58740;50.672;18.690;2023-07-02T01:22:37;97949.40;;;17.70
71081;BMP180;58740;50.672;18.690;2023-07-02T01:25:06;97949.80;;;17.60
71081;BMP180;58740;50.672;18.690;2023-07-02T01:27:37;97947.80;;;17.60
71081;BMP180;58740;50.672;18.690;2023-07-02T01:30:06;97945.40;;;17.60
71081;BMP180;58740;50.672;18.690;2023-07-02T01:32:34;97941.60;;;17.60
71081;BMP180;58740;50.672;18.690;2023-07-02T01:35:02;97943.40;;;17.64
71081;BMP180;58740;50.672;18.690;2023-07-02T01:37:30;97942.00;;;17.68
71081;BMP180;58740;50.672;18.690;2023-07-02T01:40:06;97935.60;;;17.68
71081;BMP180;58740;50.672;18.690;2023-07-02T01:42:34;97937.20;;;17.70
71081;BMP180;58740;50.672;18.690;2023-07-02T01:45:02;97933.40;;;17.70
71081;BMP180;58740;50.672;18.690;2023-07-02T01:47:30;97925.20;;;17.70
71081;BMP180;58740;50.672;18.690;2023-07-02T01:50:00;97934.20;;;17.70
71081;BMP180;58740;50.672;18.690;2023-07-02T01:52:27;97929.20;;;17.80
71081;BMP180;58740;50.672;18.690;2023-07-02T01:54:57;97926.00;;;17.90
71081;BMP180;58740;50.672;18.690;2023-07-02T01:57:24;97918.20;;;17.90
71081;BMP180;58740;50.672;18.690;2023-07-02T01:59:52;97919.80;;;17.90
71081;BMP180;58740;50.672;18.690;2023-07-02T02:02:20;97919.00;;;17.90
71081;BMP180;58740;50.672;18.690;2023-07-02T02:04:47;97913.60;;;17.90
71081;BMP180;58740;50.672;18.690;2023-07-02T02:07:15;97916.40;;;17.90
71081;BMP180;58740;50.672;18.690;2023-07-02T02:09:43;97918.20;;;17.92
71081;BMP180;58740;50.672;18.690;2023-07-02T02:12:11;97916.40;;;17.98
71081;BMP180;58740;50.672;18.690;2023-07-02T02:14:40;97915.00;;;18.00
71081;BMP180;58740;50.672;18.690;2023-07-02T02:17:08;97918.60;;;18.00
71081;BMP180;58740;50.672;18.690;2023-07-02T02:19:36;97913.80;;;18.00
71081;BMP180;58740;50.672;18.690;2023-07-02T02:22:04;97914.00;;;17.90
71081;BMP180;58740;50.672;18.690;2023-07-02T02:24:32;97912.80;;;17.90
71081;BMP180;58740;50.672;18.690;2023-07-02T02:26:59;97912.40;;;17.90
71081;BMP180;58740;50.672;18.690;2023-07-02T02:29:27;97921.60;;;17.90
71081;BMP180;58740;50.672;18.690;2023-07-02T02:31:55;97917.20;;;17.88
71081;BMP180;58740;50.672;18.690;2023-07-02T02:34:22;97918.80;;;17.80
71081;BMP180;58740;50.672;18.690;2023-07-02T02:36:50;97918.60;;;17.80
71081;BMP180;58740;50.672;18.690;2023-07-02T02:39:18;97926.20;;;17.80
71081;BMP180;58740;50.672;18.690;2023-07-02T02:41:45;97929.60;;;17.78
71081;BMP180;58740;50.672;18.690;2023-07-02T02:44:13;97931.40;;;17.70
71081;BMP180;58740;50.672;18.690;2023-07-02T02:46:41;97934.20;;;17.70
71081;BMP180;58740;50.672;18.690;2023-07-02T02:49:09;97936.40;;;17.70
71081;BMP180;58740;50.672;18.690;2023-07-02T02:51:36;97937.20;;;17.70
71081;BMP180;58740;50.672;18.690;2023-07-02T02:54:04;97936.80;;;17.64
71081;BMP180;58740;50.672;18.690;2023-07-02T02:56:32;97943.80;;;17.62
71081;BMP180;58740;50.672;18.690;2023-07-02T02:58:59;97944.60;;;17.60
71081;BMP180;58740;50.672;18.690;2023-07-02T03:01:27;97936.00;;;17.60
71081;BMP180;58740;50.672;18.690;2023-07-02T03:03:59;97935.40;;;17.60
71081;BMP180;58740;50.672;18.690;2023-07-02T03:06:27;97936.20;;;17.60
71081;BMP180;58740;50.672;18.690;2023-07-02T03:08:55;97941.00;;;17.60
71081;BMP180;58740;50.672;18.690;2023-07-02T03:11:23;97937.00;;;17.60
71081;BMP180;58740;50.672;18.690;2023-07-02T03:13:51;97944.00;;;17.60
71081;BMP180;58740;50.672;18.690;2023-07-02T03:16:18;97942.60;;;17.64
71081;BMP180;58740;50.672;18.690;2023-07-02T03:18:49;97942.00;;;17.68
71081;BMP180;58740;50.672;18.690;2023-07-02T03:21:17;97946.20;;;17.70
71081;BMP180;58740;50.672;18.690;2023-07-02T03:23:44;97943.60;;;17.70
71081;BMP180;58740;50.672;18.690;2023-07-02T03:26:12;97943.40;;;17.70
71081;BMP180;58740;50.672;18.690;2023-07-02T03:28:40;97946.20;;;17.70
71081;BMP180;58740;50.672;18.690;2023-07-02T03:31:08;97948.80;;;17.70
71081;BMP180;58740;50.672;18.690;2023-07-02T03:33:36;97951.60;;;17.70
71081;BMP180;58740;50.672;18.690;2023-07-02T03:36:03;97958.00;;;17.72
71081;BMP180;58740;50.672;18.690;2023-07-02T03:38:31;97954.40;;;17.70
71081;BMP180;58740;50.672;18.690;2023-07-02T03:40:59;97953.60;;;17.70
71081;BMP180;58740;50.672;18.690;2023-07-02T03:43:27;97956.00;;;17.72
71081;BMP180;58740;50.672;18.690;2023-07-02T03:45:57;97959.00;;;17.78
71081;BMP180;58740;50.672;18.690;2023-07-02T03:48:25;97957.20;;;17.78
71081;BMP180;58740;50.672;18.690;2023-07-02T03:50:52;97962.20;;;17.80
71081;BMP180;58740;50.672;18.690;2023-07-02T03:53:20;97969.20;;;17.80
71081;BMP180;58740;50.672;18.690;2023-07-02T03:55:48;97964.40;;;17.80
71081;BMP180;58740;50.672;18.690;2023-07-02T03:58:15;97961.60;;;17.80
71081;BMP180;58740;50.672;18.690;2023-07-02T04:00:43;97962.60;;;17.80
71081;BMP180;58740;50.672;18.690;2023-07-02T04:03:11;97972.60;;;17.80
71081;BMP180;58740;50.672;18.690;2023-07-02T04:05:39;97971.60;;;17.80
71081;BMP180;58740;50.672;18.690;2023-07-02T04:08:07;97973.20;;;17.86
71081;BMP180;58740;50.672;18.690;2023-07-02T04:10:36;97972.80;;;17.90
71081;BMP180;58740;50.672;18.690;2023-07-02T04:13:03;97973.00;;;17.90
71081;BMP180;58740;50.672;18.690;2023-07-02T04:15:31;97973.80;;;17.90
71081;BMP180;58740;50.672;18.690;2023-07-02T04:17:59;97973.80;;;17.90
71081;BMP180;58740;50.672;18.690;2023-07-02T04:20:27;97979.00;;;17.96
71081;BMP180;58740;50.672;18.690;2023-07-02T04:22:56;97981.80;;;18.00
71081;BMP180;58740;50.672;18.690;2023-07-02T04:25:24;97981.00;;;18.00
71081;BMP180;58740;50.672;18.690;2023-07-02T04:28:12;97983.40;;;18.00
71081;BMP180;58740;50.672;18.690;2023-07-02T04:30:39;97990.00;;;18.10
71081;BMP180;58740;50.672;18.690;2023-07-02T04:33:08;97988.20;;;18.10
71081;BMP180;58740;50.672;18.690;2023-07-02T04:35:35;97985.20;;;18.10
71081;BMP180;58740;50.672;18.690;2023-07-02T04:38:03;97988.80;;;18.10
71081;BMP180;58740;50.672;18.690;2023-07-02T04:40:31;97989.40;;;18.10
71081;BMP180;58740;50.672;18.690;2023-07-02T04:42:59;97988.20;;;18.18
71081;BMP180;58740;50.672;18.690;2023-07-02T04:45:27;97989.40;;;18.20
71081;BMP180;58740;50.672;18.690;2023-07-02T04:47:59;97985.00;;;18.20
71081;BMP180;58740;50.672;18.690;2023-07-02T04:50:28;97987.20;;;18.22
71081;BMP180;58740;50.672;18.690;2023-07-02T04:52:56;97989.80;;;18.26
71081;BMP180;58740;50.672;18.690;2023-07-02T04:55:24;97990.00;;;18.30
71081;BMP180;58740;50.672;18.690;2023-07-02T04:57:52;97992.80;;;18.30
71081;BMP180;58740;50.672;18.690;2023-07-02T05:00:20;97992.60;;;18.30
71081;BMP180;58740;50.672;18.690;2023-07-02T05:02:50;97996.20;;;18.30
71081;BMP180;58740;50.672;18.690;2023-07-02T05:05:18;97998.00;;;18.38
71081;BMP180;58740;50.672;18.690;2023-07-02T05:07:46;97998.80;;;18.40
71081;BMP180;58740;50.672;18.690;2023-07-02T05:10:14;97997.00;;;18.40
71081;BMP180;58740;50.672;18.690;2023-07-02T05:12:42;97999.00;;;18.40
71081;BMP180;58740;50.672;18.690;2023-07-02T05:15:10;98000.20;;;18.50
71081;BMP180;58740;50.672;18.690;2023-07-02T05:17:39;98007.60;;;18.50
71081;BMP180;58740;50.672;18.690;2023-07-02T05:20:08;98011.60;;;18.50
71081;BMP180;58740;50.672;18.690;2023-07-02T05:22:39;98014.60;;;18.50
71081;BMP180;58740;50.672;18.690;2023-07-02T05:25:07;98021.60;;;18.60
71081;BMP180;58740;50.672;18.690;2023-07-02T05:27:35;98013.80;;;18.60
71081;BMP180;58740;50.672;18.690;2023-07-02T05:30:03;98020.00;;;18.60
71081;BMP180;58740;50.672;18.690;2023-07-02T05:32:34;98023.40;;;18.70
71081;BMP180;58740;50.672;18.690;2023-07-02T05:35:02;98023.80;;;18.70
71081;BMP180;58740;50.672;18.690;2023-07-02T05:37:30;98032.00;;;18.70
71081;BMP180;58740;50.672;18.690;2023-07-02T05:39:58;98036.20;;;18.70
71081;BMP180;58740;50.672;18.690;2023-07-02T05:42:26;98029.60;;;18.78
71081;BMP180;58740;50.672;18.690;2023-07-02T05:44:53;98032.40;;;18.80
71081;BMP180;58740;50.672;18.690;2023-07-02T05:47:21;98037.00;;;18.80
71081;BMP180;58740;50.672;18.690;2023-07-02T05:49:49;98036.00;;;18.80
71081;BMP180;58740;50.672;18.690;2023-07-02T05:52:17;98038.60;;;18.80
71081;BMP180;58740;50.672;18.690;2023-07-02T05:54:46;98046.40;;;18.82
71081;BMP180;58740;50.672;18.690;2023-07-02T05:57:14;98042.00;;;18.82
71081;BMP180;58740;50.672;18.690;2023-07-02T05:59:42;98046.60;;;18.86
71081;BMP180;58740;50.672;18.690;2023-07-02T06:02:09;98045.20;;;18.90
71081;BMP180;58740;50.672;18.690;2023-07-02T06:04:37;98047.40;;;18.90
71081;BMP180;58740;50.672;18.690;2023-07-02T06:07:05;98047.80;;;18.90
71081;BMP180;58740;50.672;18.690;2023-07-02T06:09:33;98049.20;;;18.90
71081;BMP180;58740;50.672;18.690;2023-07-02T06:12:00;98047.20;;;18.90
71081;BMP180;58740;50.672;18.690;2023-07-02T06:14:28;98047.20;;;18.90
71081;BMP180;58740;50.672;18.690;2023-07-02T06:16:56;98050.40;;;19.00
71081;BMP180;58740;50.672;18.690;2023-07-02T06:19:25;98052.60;;;19.00
71081;BMP180;58740;50.672;18.690;2023-07-02T06:21:52;98049.80;;;19.00
71081;BMP180;58740;50.672;18.690;2023-07-02T06:24:20;98049.80;;;19.00
71081;BMP180;58740;50.672;18.690;2023-07-02T06:26:48;98046.40;;;19.04
71081;BMP180;58740;50.672;18.690;2023-07-02T06:29:16;98045.80;;;19.10
71081;BMP180;58740;50.672;18.690;2023-07-02T06:31:44;98049.80;;;19.10
71081;BMP180;58740;50.672;18.690;2023-07-02T06:34:12;98056.60;;;19.10
71081;BMP180;58740;50.672;18.690;2023-07-02T06:36:40;98057.80;;;19.10
71081;BMP180;58740;50.672;18.690;2023-07-02T06:39:09;98058.00;;;19.18
71081;BMP180;58740;50.672;18.690;2023-07-02T06:41:36;98059.00;;;19.20
71081;BMP180;58740;50.672;18.690;2023-07-02T06:44:04;98064.00;;;19.20
71081;BMP180;58740;50.672;18.690;2023-07-02T06:46:32;98068.40;;;19.20
71081;BMP180;58740;50.672;18.690;2023-07-02T06:49:00;98065.40;;;19.30
71081;BMP180;58740;50.672;18.690;2023-07-02T06:51:28;98067.40;;;19.30
71081;BMP180;58740;50.672;18.690;2023-07-02T06:53:56;98067.40;;;19.32
71081;BMP180;58740;50.672;18.690;2023-07-02T06:56:24;98068.00;;;19.40
71081;BMP180;58740;50.672;18.690;2023-07-02T06:58:52;98070.80;;;19.40
71081;BMP180;58740;50.672;18.690;2023-07-02T07:01:20;98065.20;;;19.40
71081;BMP180;58740;50.672;18.690;2023-07-02T07:03:48;98070.80;;;19.40
71081;BMP180;58740;50.672;18.690;2023-07-02T07:06:15;98077.60;;;19.40
71081;BMP180;58740;50.672;18.690;2023-07-02T07:08:43;98083.00;;;19.40
71081;BMP180;58740;50.672;18.690;2023-07-02T07:11:11;98091.00;;;19.40
71081;BMP180;58740;50.672;18.690;2023-07-02T07:13:39;98097.00;;;19.38
71081;BMP180;58740;50.672;18.690;2023-07-02T07:16:06;98096.60;;;19.30
71081;BMP180;58740;50.672;18.690;2023-07-02T07:18:34;98101.80;;;19.30
71081;BMP180;58740;50.672;18.690;2023-07-02T07:21:02;98108.40;;;19.30
71081;BMP180;58740;50.672;18.690;2023-07-02T07:23:31;98109.60;;;19.30
71081;BMP180;58740;50.672;18.690;2023-07-02T07:25:59;98109.20;;;19.30
71081;BMP180;58740;50.672;18.690;2023-07-02T07:28:26;98114.80;;;19.30
71081;BMP180;58740;50.672;18.690;2023-07-02T07:30:54;98117.40;;;19.30
71081;BMP180;58740;50.672;18.690;2023-07-02T07:33:22;98119.60;;;19.30
71081;BMP180;58740;50.672;18.690;2023-07-02T07:35:50;98122.20;;;19.30
71081;BMP180;58740;50.672;18.690;2023-07-02T07:38:18;98123.40;;;19.30
71081;BMP180;58740;50.672;18.690;2023-07-02T07:40:46;98122.00;;;19.30
71081;BMP180;58740;50.672;18.690;2023-07-02T07:43:14;98121.80;;;19.30
71081;BMP180;58740;50.672;18.690;2023-07-02T07:45:43;98130.20;;;19.30
71081;BMP180;58740;50.672;18.690;2023-07-02T07:48:11;98124.80;;;19.40
71081;BMP180;58740;50.672;18.690;2023-07-02T07:50:39;98125.00;;;19.40
71081;BMP180;58740;50.672;18.690;2023-07-02T07:53:06;98128.40;;;19.40
71081;BMP180;58740;50.672;18.690;2023-07-02T07:55:34;98128.40;;;19.40
71081;BMP180;58740;50.672;18.690;2023-07-02T07:58:02;98128.40;;;19.40
71081;BMP180;58740;50.672;18.690;2023-07-02T08:00:30;98128.00;;;19.46
71081;BMP180;58740;50.672;18.690;2023-07-02T08:02:57;98130.20;;;19.50
71081;BMP180;58740;50.672;18.690;2023-07-02T08:05:27;98136.00;;;19.42
71081;BMP180;58740;50.672;18.690;2023-07-02T08:07:55;98137.80;;;19.46
71081;BMP180;58740;50.672;18.690;2023-07-02T08:10:23;98143.00;;;19.50
71081;BMP180;58740;50.672;18.690;2023-07-02T08:12:52;98149.20;;;19.40
71081;BMP180;58740;50.672;18.690;2023-07-02T08:15:20;98152.80;;;19.40
71081;BMP180;58740;50.672;18.690;2023-07-02T08:17:48;98158.40;;;19.40
71081;BMP180;58740;50.672;18.690;2023-07-02T08:20:16;98158.20;;;19.40
71081;BMP180;58740;50.672;18.690;2023-07-02T08:22:45;98157.80;;;19.36
71081;BMP180;58740;50.672;18.690;2023-07-02T08:25:13;98163.80;;;19.38
71081;BMP180;58740;50.672;18.690;2023-07-02T08:27:41;98160.60;;;19.38
71081;BMP180;58740;50.672;18.690;2023-07-02T08:30:09;98165.60;;;19.40
71081;BMP180;58740;50.672;18.690;2023-07-02T08:32:37;98165.40;;;19.32
71081;BMP180;58740;50.672;18.690;2023-07-02T08:35:05;98168.60;;;19.30
71081;BMP180;58740;50.672;18.690;2023-07-02T08:37:33;98174.20;;;19.32
71081;BMP180;58740;50.672;18.690;2023-07-02T08:40:01;98173.20;;;19.34
71081;BMP180;58740;50.672;18.690;2023-07-02T08:42:29;98170.80;;;19.30
71081;BMP180;58740;50.672;18.690;2023-07-02T08:44:59;98169.40;;;19.30
71081;BMP180;58740;50.672;18.690;2023-07-02T08:47:28;98174.20;;;19.30
71081;BMP180;58740;50.672;18.690;2023-07-02T08:49:56;98168.60;;;19.30
71081;BMP180;58740;50.672;18.690;2023-07-02T08:52:23;98171.60;;;19.32
71081;BMP180;58740;50.672;18.690;2023-07-02T08:54:51;98164.00;;;19.40
71081;BMP180;58740;50.672;18.690;2023-07-02T08:57:19;98163.80;;;19.40
71081;BMP180;58740;50.672;18.690;2023-07-02T08:59:48;98165.20;;;19.48
71081;BMP180;58740;50.672;18.690;2023-07-02T09:02:31;98169.60;;;19.50
71081;BMP180;58740;50.672;18.690;2023-07-02T09:05:01;98168.20;;;19.60
71081;BMP180;58740;50.672;18.690;2023-07-02T09:07:30;98169.20;;;19.60
71081;BMP180;58740;50.672;18.690;2023-07-02T09:09:58;98159.80;;;19.60
71081;BMP180;58740;50.672;18.690;2023-07-02T09:12:27;98163.20;;;19.68
71081;BMP180;58740;50.672;18.690;2023-07-02T09:15:01;98158.00;;;19.70
71081;BMP180;58740;50.672;18.690;2023-07-02T09:17:37;98157.20;;;19.70
71081;BMP180;58740;50.672;18.690;2023-07-02T09:20:06;98159.20;;;19.80
71081;BMP180;58740;50.672;18.690;2023-07-02T09:22:36;98162.00;;;19.90
71081;BMP180;58740;50.672;18.690;2023-07-02T09:25:05;98164.20;;;20.00
71081;BMP180;58740;50.672;18.690;2023-07-02T09:27:41;98160.20;;;20.10
71081;BMP180;58740;50.672;18.690;2023-07-02T09:30:15;98162.80;;;20.22
71081;BMP180;58740;50.672;18.690;2023-07-02T09:32:45;98163.20;;;20.32
71081;BMP180;58740;50.672;18.690;2023-07-02T09:35:14;98159.80;;;20.40
71081;BMP180;58740;50.672;18.690;2023-07-02T09:37:43;98158.20;;;20.50
71081;BMP180;58740;50.672;18.690;2023-07-02T09:40:12;98155.60;;;20.50
71081;BMP180;58740;50.672;18.690;2023-07-02T09:42:41;98156.40;;;20.56
71081;BMP180;58740;50.672;18.690;2023-07-02T09:45:11;98155.40;;;20.60
71081;BMP180;58740;50.672;18.690;2023-07-02T09:47:44;98156.60;;;20.60
71081;BMP180;58740;50.672;18.690;2023-07-02T09:50:16;98157.20;;;20.60
71081;BMP180;58740;50.672;18.690;2023-07-02T09:52:46;98152.20;;;20.64
71081;BMP180;58740;50.672;18.690;2023-07-02T09:55:15;98144.80;;;20.70
71081;BMP180;58740;50.672;18.690;2023-07-02T09:57:44;98138.40;;;20.80
71081;BMP180;58740;50.672;18.690;2023-07-02T10:00:14;98130.80;;;20.90
71081;BMP180;58740;50.672;18.690;2023-07-02T10:02:49;98132.40;;;21.00
71081;BMP180;58740;50.672;18.690;2023-07-02T10:05:32;98134.40;;;21.10
71081;BMP180;58740;50.672;18.690;2023-07-02T10:08:15;98137.00;;;21.20
71081;BMP180;58740;50.672;18.690;2023-07-02T10:10:45;98131.40;;;21.30
71081;BMP180;58740;50.672;18.690;2023-07-02T10:13:13;98126.40;;;21.40
71081;BMP180;58740;50.672;18.690;2023-07-02T10:15:41;98126.60;;;21.40
71081;BMP180;58740;50.672;18.690;2023-07-02T10:18:09;98120.60;;;21.40
71081;BMP180;58740;50.672;18.690;2023-07-02T10:20:40;98115.60;;;21.40
71081;BMP180;58740;50.672;18.690;2023-07-02T10:23:09;98114.00;;;21.40
71081;BMP180;58740;50.672;18.690;2023-07-02T10:25:39;98118.80;;;21.30
71081;BMP180;58740;50.672;18.690;2023-07-02T10:28:21;98119.60;;;21.30
71081;BMP180;58740;50.672;18.690;2023-07-02T10:30:54;98118.00;;;21.28
71081;BMP180;58740;50.672;18.690;2023-07-02T10:33:23;98114.80;;;21.30
71081;BMP180;58740;50.672;18.690;2023-07-02T10:35:51;98107.20;;;21.30
71081;BMP180;58740;50.672;18.690;2023-07-02T10:38:24;98106.00;;;21.30
71081;BMP180;58740;50.672;18.690;2023-07-02T10:40:58;98104.00;;;21.30
71081;BMP180;58740;50.672;18.690;2023-07-02T10:43:28;98091.00;;;21.36
71081;BMP180;58740;50.672;18.690;2023-07-02T10:45:59;98091.60;;;21.40
71081;BMP180;58740;50.672;18.690;2023-07-02T10:48:31;98085.40;;;21.40
71081;BMP180;58740;50.672;18.690;2023-07-02T10:50:59;98083.40;;;21.50
71081;BMP180;58740;50.672;18.690;2023-07-02T10:53:27;98073.60;;;21.50
71081;BMP180;58740;50.672;18.690;2023-07-02T10:55:56;98075.40;;;21.50
71081;BMP180;58740;50.672;18.690;2023-07-02T10:58:26;98069.40;;;21.60
71081;BMP180;58740;50.672;18.690;2023-07-02T11:00:54;98072.60;;;21.60
71081;BMP180;58740;50.672;18.690;2023-07-02T11:03:25;98072.20;;;21.70
71081;BMP180;58740;50.672;18.690;2023-07-02T11:05:53;98065.60;;;21.70
71081;BMP180;58740;50.672;18.690;2023-07-02T11:08:22;98054.80;;;21.70
71081;BMP180;58740;50.672;18.690;2023-07-02T11:11:07;98052.40;;;21.70
71081;BMP180;58740;50.672;18.690;2023-07-02T11:13:45;98057.60;;;21.70
71081;BMP180;58740;50.672;18.690;2023-07-02T11:16:27;98058.80;;;21.70
71081;BMP180;58740;50.672;18.690;2023-07-02T11:19:09;98061.00;;;21.70
71081;BMP180;58740;50.672;18.690;2023-07-02T11:21:37;98064.40;;;21.60
71081;BMP180;58740;50.672;18.690;2023-07-02T11:24:07;98081.40;;;21.60
71081;BMP180;58740;50.672;18.690;2023-07-02T11:26:37;98110.00;;;21.50
71081;BMP180;58740;50.672;18.690;2023-07-02T11:29:12;98154.80;;;21.30
71081;BMP180;58740;50.672;18.690;2023-07-02T11:31:45;98174.00;;;20.90
71081;BMP180;58740;50.672;18.690;2023-07-02T11:34:18;98167.20;;;20.60
71081;BMP180;58740;50.672;18.690;2023-07-02T11:36:50;98160.40;;;20.30
71081;BMP180;58740;50.672;18.690;2023-07-02T11:39:18;98156.80;;;20.10
71081;BMP180;58740;50.672;18.690;2023-07-02T11:41:47;98160.00;;;19.90
71081;BMP180;58740;50.672;18.690;2023-07-02T11:44:16;98166.20;;;19.84
71081;BMP180;58740;50.672;18.690;2023-07-02T11:46:45;98175.80;;;19.80
71081;BMP180;58740;50.672;18.690;2023-07-02T11:49:15;98183.40;;;19.80
71081;BMP180;58740;50.672;18.690;2023-07-02T11:51:44;98189.80;;;19.80
71081;BMP180;58740;50.672;18.690;2023-07-02T11:54:16;98194.40;;;19.80
71081;BMP180;58740;50.672;18.690;2023-07-02T11:56:47;98180.60;;;19.80
71081;BMP180;58740;50.672;18.690;2023-07-02T11:59:15;98172.20;;;19.80
71081;BMP180;58740;50.672;18.690;2023-07-02T12:01:43;98181.80;;;19.90
71081;BMP180;58740;50.672;18.690;2023-07-02T12:04:11;98176.40;;;20.00
71081;BMP180;58740;50.672;18.690;2023-07-02T12:06:39;98178.40;;;20.00
71081;BMP180;58740;50.672;18.690;2023-07-02T12:09:07;98182.60;;;20.00
71081;BMP180;58740;50.672;18.690;2023-07-02T12:11:35;98186.60;;;20.10
71081;BMP180;58740;50.672;18.690;2023-07-02T12:14:03;98190.40;;;20.10
71081;BMP180;58740;50.672;18.690;2023-07-02T12:16:31;98190.80;;;20.18
71081;BMP180;58740;50.672;18.690;2023-07-02T12:18:58;98180.20;;;20.20
71081;BMP180;58740;50.672;18.690;2023-07-02T12:21:26;98187.40;;;20.24
71081;BMP180;58740;50.672;18.690;2023-07-02T12:23:54;98185.00;;;20.30
71081;BMP180;58740;50.672;18.690;2023-07-02T12:26:22;98188.20;;;20.30
71081;BMP180;58740;50.672;18.690;2023-07-02T12:28:50;98188.40;;;20.30
71081;BMP180;58740;50.672;18.690;2023-07-02T12:31:17;98192.60;;;20.30
71081;BMP180;58740;50.672;18.690;2023-07-02T12:33:46;98199.80;;;20.30
71081;BMP180;58740;50.672;18.690;2023-07-02T12:36:13;98198.60;;;20.30
71081;BMP180;58740;50.672;18.690;2023-07-02T12:38:41;98194.80;;;20.40
71081;BMP180;58740;50.672;18.690;2023-07-02T12:41:09;98187.60;;;20.40
71081;BMP180;58740;50.672;18.690;2023-07-02T12:43:37;98193.80;;;20.50
71081;BMP180;58740;50.672;18.690;2023-07-02T12:46:06;98185.20;;;20.50
71081;BMP180;58740;50.672;18.690;2023-07-02T12:48:34;98187.20;;;20.50
71081;BMP180;58740;50.672;18.690;2023-07-02T12:51:02;98186.20;;;20.50
71081;BMP180;58740;50.672;18.690;2023-07-02T12:53:30;98183.80;;;20.60
71081;BMP180;58740;50.672;18.690;2023-07-02T12:55:57;98180.80;;;20.60
71081;BMP180;58740;50.672;18.690;2023-07-02T12:58:25;98179.00;;;20.62
71081;BMP180;58740;50.672;18.690;2023-07-02T13:00:53;98167.00;;;20.70
71081;BMP180;58740;50.672;18.690;2023-07-02T13:03:22;98168.20;;;20.70
71081;BMP180;58740;50.672;18.690;2023-07-02T13:05:53;98172.80;;;20.80
71081;BMP180;58740;50.672;18.690;2023-07-02T13:08:21;98174.80;;;20.88
71081;BMP180;58740;50.672;18.690;2023-07-02T13:10:49;98175.40;;;20.98
71081;BMP180;58740;50.672;18.690;2023-07-02T13:13:16;98176.20;;;21.00
71081;BMP180;58740;50.672;18.690;2023-07-02T13:15:50;98177.80;;;21.00
71081;BMP180;58740;50.672;18.690;2023-07-02T13:18:19;98179.00;;;21.00
71081;BMP180;58740;50.672;18.690;2023-07-02T13:20:47;98173.80;;;21.10
71081;BMP180;58740;50.672;18.690;2023-07-02T13:23:14;98181.60;;;21.20
71081;BMP180;58740;50.672;18.690;2023-07-02T13:25:42;98182.00;;;21.20
71081;BMP180;58740;50.672;18.690;2023-07-02T13:28:10;98176.80;;;21.20
71081;BMP180;58740;50.672;18.690;2023-07-02T13:30:38;98178.60;;;21.20
71081;BMP180;58740;50.672;18.690;2023-07-02T13:33:05;98183.60;;;21.30
71081;BMP180;58740;50.672;18.690;2023-07-02T13:35:33;98187.80;;;21.30
71081;BMP180;58740;50.672;18.690;2023-07-02T13:38:04;98180.80;;;21.22
71081;BMP180;58740;50.672;18.690;2023-07-02T13:40:33;98187.60;;;21.22
71081;BMP180;58740;50.672;18.690;2023-07-02T13:43:00;98187.00;;;21.26
71081;BMP180;58740;50.672;18.690;2023-07-02T13:45:28;98185.20;;;21.20
71081;BMP180;58740;50.672;18.690;2023-07-02T13:47:56;98182.00;;;21.20
71081;BMP180;58740;50.672;18.690;2023-07-02T13:50:24;98185.20;;;21.20
71081;BMP180;58740;50.672;18.690;2023-07-02T13:52:52;98187.00;;;21.20
71081;BMP180;58740;50.672;18.690;2023-07-02T13:55:19;98186.00;;;21.30
71081;BMP180;58740;50.672;18.690;2023-07-02T13:57:51;98183.60;;;21.30
71081;BMP180;58740;50.672;18.690;2023-07-02T14:00:19;98184.00;;;21.30
71081;BMP180;58740;50.672;18.690;2023-07-02T14:02:46;98185.00;;;21.30
71081;BMP180;58740;50.672;18.690;2023-07-02T14:05:15;98180.60;;;21.30